createdAt,value
2022-12-03T00:00:36.447Z,92.34
2022-12-03T00:03:39.044Z,92.24
2022-12-03T00:06:43.146Z,91.91
2022-12-03T00:09:46.028Z,91.43
2022-12-03T00:12:49.842Z,91.88
2022-12-03T00:15:52.368Z,91.48
2022-12-03T00:18:55.102Z,92.64
2022-12-03T00:21:57.562Z,93.62
2022-12-03T00:25:00.158Z,93.46
2022-12-03T00:28:04.179Z,93.51
2022-12-03T00:31:07.297Z,92.99
2022-12-03T00:34:09.863Z,93.17
2022-12-03T00:37:12.304Z,93.08
2022-12-03T00:40:14.988Z,92.70
2022-12-03T00:43:18.757Z,92.71
2022-12-03T00:46:21.854Z,93.15
2022-12-03T00:49:24.380Z,92.32
2022-12-03T00:52:26.875Z,92.22
2022-12-03T00:55:29.298Z,92.42
2022-12-03T00:58:33.083Z,91.79
2022-12-03T01:01:35.581Z,92.62
2022-12-03T01:04:38.276Z,92.07
2022-12-03T01:07:40.804Z,92.39
2022-12-03T01:10:43.289Z,91.98
2022-12-03T01:13:47.104Z,92.15
2022-12-03T01:16:49.653Z,92.30
2022-12-03T01:19:52.652Z,92.29
2022-12-03T01:22:55.030Z,92.50
2022-12-03T01:25:57.388Z,92.21
2022-12-03T01:29:01.206Z,91.78
2022-12-03T01:32:19.486Z,92.24
2022-12-03T01:35:22.097Z,92.31
2022-12-03T01:38:24.579Z,92.58
2022-12-03T01:41:27.768Z,92.89
2022-12-03T01:44:34.787Z,92.97
2022-12-03T01:47:38.322Z,92.36
2022-12-03T01:50:42.635Z,92.20
2022-12-03T01:53:46.031Z,91.89
2022-12-03T01:56:49.172Z,92.24
2022-12-03T01:59:54.175Z,92.72
2022-12-03T02:02:59.529Z,92.19
2022-12-03T02:06:02.096Z,92.69
2022-12-03T02:09:08.448Z,93.25
2022-12-03T02:12:11.400Z,93.42
2022-12-03T02:15:15.315Z,93.12
2022-12-03T02:18:18.232Z,92.42
2022-12-03T02:21:29.274Z,92.41
2022-12-03T02:24:37.319Z,91.98
2022-12-03T02:27:41.665Z,92.20
2022-12-03T02:30:44.196Z,93.16
2022-12-03T02:33:46.748Z,92.60
2022-12-03T02:36:49.190Z,93.11
2022-12-03T02:39:55.023Z,92.97
2022-12-03T02:43:01.235Z,92.34
2022-12-03T02:46:05.038Z,92.46
2022-12-03T02:49:07.847Z,91.82
2022-12-03T02:52:10.986Z,91.70
2022-12-03T02:55:15.396Z,91.83
2022-12-03T02:58:20.878Z,91.58
2022-12-03T03:01:23.365Z,92.16
2022-12-03T03:04:25.965Z,91.57
2022-12-03T03:07:28.771Z,92.13
2022-12-03T03:10:33.986Z,92.83
2022-12-03T03:13:38.988Z,92.98
2022-12-03T03:16:41.663Z,92.10
2022-12-03T03:19:44.374Z,92.14
2022-12-03T03:22:46.794Z,92.02
2022-12-03T03:25:54.635Z,92.38
2022-12-03T03:29:02.048Z,92.49
2022-12-03T03:32:05.224Z,92.52
2022-12-03T03:35:10.809Z,91.88
2022-12-03T03:38:13.988Z,91.84
2022-12-03T03:41:17.243Z,92.09
2022-12-03T03:44:21.139Z,92.08
2022-12-03T03:47:24.084Z,91.21
2022-12-03T03:50:28.266Z,91.45
2022-12-03T03:53:30.997Z,91.87
2022-12-03T03:56:34.573Z,91.57
2022-12-03T03:59:38.435Z,91.29
2022-12-03T04:02:41.580Z,91.30
2022-12-03T04:05:44.088Z,91.63
2022-12-03T04:08:47.809Z,91.15
2022-12-03T04:12:08.912Z,91.91
2022-12-03T04:15:12.711Z,92.29
2022-12-03T04:18:33.503Z,92.69
2022-12-03T04:21:54.806Z,91.81
2022-12-03T04:25:17.221Z,92.49
2022-12-03T04:28:38.402Z,92.26
2022-12-03T04:32:00.703Z,92.21
2022-12-03T04:35:22.367Z,91.68
2022-12-03T04:38:24.900Z,91.71
2022-12-03T04:41:27.351Z,91.49
2022-12-03T04:44:38.898Z,91.48
2022-12-03T04:47:42.812Z,91.53
2022-12-03T04:50:45.310Z,91.70
2022-12-03T04:53:47.877Z,91.97
2022-12-03T04:56:50.311Z,92.23
2022-12-03T04:59:54.154Z,91.73
2022-12-03T05:02:57.944Z,91.52
2022-12-03T05:06:00.372Z,90.66
2022-12-03T05:09:03.077Z,90.23
2022-12-03T05:12:05.982Z,90.85
2022-12-03T05:15:09.127Z,90.76
2022-12-03T05:18:13.011Z,90.84
2022-12-03T05:21:15.593Z,90.62
2022-12-03T05:24:18.040Z,91.31
2022-12-03T05:27:23.906Z,91.54
2022-12-03T05:30:27.033Z,91.36
2022-12-03T05:33:30.919Z,91.53
2022-12-03T05:36:33.385Z,90.98
2022-12-03T05:39:35.791Z,90.19
2022-12-03T05:42:56.711Z,90.83
2022-12-03T05:45:59.205Z,90.85
2022-12-03T05:49:03.167Z,92.40
2022-12-03T05:52:06.004Z,92.16
2022-12-03T05:55:09.154Z,90.76
2022-12-03T05:58:11.988Z,90.72
2022-12-03T06:01:14.400Z,91.12
2022-12-03T06:04:18.140Z,90.16
2022-12-03T06:07:20.734Z,90.99
2022-12-03T06:10:25.462Z,89.83
2022-12-03T06:13:27.864Z,90.35
2022-12-03T06:16:30.387Z,90.09
2022-12-03T06:19:34.431Z,91.35
2022-12-03T06:22:36.847Z,90.68
2022-12-03T06:25:39.361Z,91.16
2022-12-03T06:28:46.338Z,90.85
2022-12-03T06:31:48.853Z,90.33
2022-12-03T06:34:53.050Z,89.73
2022-12-03T06:37:55.796Z,89.83
2022-12-03T06:40:58.234Z,89.99
2022-12-03T06:44:00.752Z,89.46
2022-12-03T06:47:03.248Z,89.92
2022-12-03T06:50:08.905Z,89.86
2022-12-03T06:53:11.347Z,90.04
2022-12-03T06:56:13.793Z,90.72
2022-12-03T06:59:16.250Z,90.26
2022-12-03T07:02:18.886Z,90.59
2022-12-03T07:05:23.503Z,90.80
2022-12-03T07:08:26.205Z,91.02
2022-12-03T07:11:31.436Z,89.83
2022-12-03T07:14:33.998Z,89.88
2022-12-03T07:17:36.446Z,90.20
2022-12-03T07:20:40.223Z,88.89
2022-12-03T07:23:42.868Z,88.26
2022-12-03T07:26:45.416Z,88.52
2022-12-03T07:29:48.054Z,88.12
2022-12-03T07:32:50.576Z,89.24
2022-12-03T07:35:54.418Z,89.21
2022-12-03T07:39:15.605Z,89.16
2022-12-03T07:42:19.046Z,89.25
2022-12-03T07:45:21.439Z,88.56
2022-12-03T07:48:24.083Z,87.98
2022-12-03T07:51:32.130Z,88.72
2022-12-03T07:54:35.219Z,87.07
2022-12-03T07:57:37.838Z,87.57
2022-12-03T08:00:40.531Z,87.85
2022-12-03T08:03:43.121Z,86.14
2022-12-03T08:06:47.878Z,87.51
2022-12-03T08:09:50.665Z,87.21
2022-12-03T08:12:53.790Z,86.41
2022-12-03T08:16:01.156Z,84.56
2022-12-03T08:19:09.419Z,84.59
2022-12-03T08:22:14.686Z,84.43
2022-12-03T08:25:21.142Z,84.18
2022-12-03T08:28:28.140Z,83.24
2022-12-03T08:31:33.650Z,82.78
2022-12-03T08:34:40.369Z,82.99
2022-12-03T08:37:44.356Z,82.91
2022-12-03T08:40:49.289Z,82.85
2022-12-03T08:43:51.701Z,85.05
2022-12-03T08:46:59.996Z,84.20
2022-12-03T08:50:26.257Z,84.21
2022-12-03T08:53:35.354Z,85.43
2022-12-03T08:56:37.943Z,83.95
2022-12-03T08:59:45.365Z,84.76
2022-12-03T09:02:51.459Z,86.22
2022-12-03T09:05:53.961Z,84.81
2022-12-03T09:09:01.131Z,85.29
2022-12-03T09:12:06.737Z,84.54
2022-12-03T09:15:09.864Z,83.39
2022-12-03T09:18:12.404Z,83.60
2022-12-03T09:21:15.036Z,82.74
2022-12-03T09:24:19.588Z,83.95
2022-12-03T09:27:22.888Z,83.17
2022-12-03T09:30:25.500Z,83.72
2022-12-03T09:33:28.067Z,83.02
2022-12-03T09:36:30.689Z,82.14
2022-12-03T09:39:34.798Z,81.02
2022-12-03T09:42:58.576Z,80.35
2022-12-03T09:46:01.409Z,79.52
2022-12-03T09:49:12.232Z,76.79
2022-12-03T09:52:24.155Z,72.39
2022-12-03T09:55:29.987Z,73.30
2022-12-03T09:58:34.937Z,72.33
2022-12-03T10:01:39.067Z,72.27
2022-12-03T10:04:41.657Z,73.82
2022-12-03T10:07:44.375Z,73.11
2022-12-03T10:10:50.486Z,70.14
2022-12-03T10:13:56.019Z,69.60
2022-12-03T10:17:00.126Z,68.67
2022-12-03T10:20:02.757Z,67.39
2022-12-03T10:23:05.675Z,67.05
2022-12-03T10:26:09.611Z,65.41
2022-12-03T10:29:13.374Z,62.64
2022-12-03T10:32:15.843Z,65.04
2022-12-03T10:35:20.721Z,65.52
2022-12-03T10:38:23.580Z,67.48
2022-12-03T10:41:28.847Z,63.14
2022-12-03T10:44:31.283Z,62.35
2022-12-03T10:47:33.878Z,63.18
2022-12-03T10:50:37.212Z,62.56
2022-12-03T10:53:40.817Z,63.45
2022-12-03T10:56:46.156Z,64.58
2022-12-03T10:59:49.466Z,66.77
2022-12-03T11:03:18.138Z,65.79
2022-12-03T11:06:22.584Z,65.15
2022-12-03T11:09:28.509Z,63.84
2022-12-03T11:12:34.674Z,64.12
2022-12-03T11:15:45.122Z,62.40
2022-12-03T11:19:02.257Z,60.41
2022-12-03T11:22:23.929Z,59.96
2022-12-03T11:25:49.557Z,58.96
2022-12-03T11:28:56.085Z,58.78
2022-12-03T11:31:59.327Z,63.70
2022-12-03T11:35:01.747Z,63.69
2022-12-03T11:38:50.717Z,60.98
2022-12-03T11:42:29.506Z,59.47
2022-12-03T11:45:35.953Z,58.95
2022-12-03T11:48:44.155Z,58.99
2022-12-03T11:51:47.108Z,58.79
2022-12-03T11:54:53.865Z,59.58
2022-12-03T11:58:01.965Z,63.31
2022-12-03T12:01:08.000Z,59.44
2022-12-03T12:04:28.198Z,60.24
2022-12-03T12:07:50.270Z,61.03
2022-12-03T12:10:52.822Z,59.28
2022-12-03T12:13:57.167Z,60.38
2022-12-03T12:17:03.284Z,61.93
2022-12-03T12:20:23.523Z,63.46
2022-12-03T12:23:29.089Z,66.30
2022-12-03T12:26:31.526Z,65.30
2022-12-03T12:29:34.715Z,66.10
2022-12-03T12:32:45.935Z,68.39
2022-12-03T12:35:48.809Z,68.72
2022-12-03T12:38:51.264Z,69.44
2022-12-03T12:41:55.373Z,70.08
2022-12-03T12:45:01.231Z,70.21
2022-12-03T12:48:15.688Z,70.47
2022-12-03T12:51:18.844Z,71.63
2022-12-03T12:54:21.459Z,71.29
2022-12-03T12:57:24.299Z,71.57
2022-12-03T13:00:26.824Z,71.88
2022-12-03T13:03:34.034Z,72.67
2022-12-03T13:06:36.530Z,73.22
2022-12-03T13:09:39.550Z,72.93
2022-12-03T13:12:42.156Z,72.63
2022-12-03T13:15:50.510Z,75.83
2022-12-03T13:18:55.565Z,73.97
2022-12-03T13:22:01.760Z,74.37
2022-12-03T13:25:58.150Z,73.62
2022-12-03T13:28:57.753Z,74.33
2022-12-03T13:32:10.111Z,73.83
2022-12-03T13:35:25.386Z,75.03
2022-12-03T13:38:28.052Z,75.09
2022-12-03T13:41:49.173Z,76.24
2022-12-03T13:44:53.233Z,75.64
2022-12-03T13:47:58.565Z,76.59
2022-12-03T13:51:26.207Z,76.12
2022-12-03T13:54:31.282Z,77.54
2022-12-03T13:57:33.711Z,78.00
2022-12-03T14:00:36.250Z,78.36
2022-12-03T14:03:38.817Z,78.21
2022-12-03T14:06:42.746Z,78.27
2022-12-03T14:09:45.256Z,78.08
2022-12-03T14:12:47.669Z,78.58
2022-12-03T14:15:50.193Z,79.61
2022-12-03T14:18:52.842Z,80.16
2022-12-03T14:21:56.775Z,80.50
2022-12-03T14:24:59.273Z,80.39
2022-12-03T14:28:01.926Z,79.77
2022-12-03T14:31:06.011Z,81.41
2022-12-03T14:34:08.888Z,81.92
2022-12-03T14:37:12.863Z,81.54
2022-12-03T14:40:20.972Z,81.93
2022-12-03T14:43:24.156Z,82.17
2022-12-03T14:46:26.858Z,82.57
2022-12-03T14:49:44.894Z,82.88
2022-12-03T14:52:49.117Z,83.29
2022-12-03T14:55:51.552Z,83.63
2022-12-03T14:58:54.202Z,84.56
2022-12-03T15:01:56.989Z,84.91
2022-12-03T15:04:59.599Z,84.64
2022-12-03T15:08:03.532Z,84.77
2022-12-03T15:11:06.494Z,85.18
2022-12-03T15:14:08.991Z,85.11
2022-12-03T15:17:11.545Z,85.87
2022-12-03T15:20:14.440Z,85.63
2022-12-03T15:23:18.508Z,86.08
2022-12-03T15:26:21.217Z,85.63
2022-12-03T15:29:23.772Z,86.16
2022-12-03T15:32:26.336Z,86.63
2022-12-03T15:35:28.901Z,86.87
2022-12-03T15:38:34.526Z,87.41
2022-12-03T15:41:37.469Z,87.99
2022-12-03T15:44:40.043Z,87.95
2022-12-03T15:47:42.557Z,87.86
2022-12-03T15:50:45.263Z,87.94
2022-12-03T15:53:49.175Z,88.20
2022-12-03T15:56:57.002Z,87.97
2022-12-03T16:00:00.321Z,87.64
2022-12-03T16:03:02.941Z,86.83
2022-12-03T16:06:06.001Z,86.70
2022-12-03T16:09:10.195Z,87.78
2022-12-03T16:12:12.618Z,88.08
2022-12-03T16:15:16.496Z,88.29
2022-12-03T16:18:19.005Z,88.46
2022-12-03T16:21:26.423Z,87.85
2022-12-03T16:24:31.019Z,87.96
2022-12-03T16:27:33.527Z,87.84
2022-12-03T16:30:37.097Z,88.07
2022-12-03T16:33:39.619Z,87.74
2022-12-03T16:36:42.132Z,88.72
2022-12-03T16:39:46.352Z,88.67
2022-12-03T16:42:48.747Z,88.08
2022-12-03T16:46:02.127Z,87.40
2022-12-03T16:49:06.217Z,87.54
2022-12-03T16:52:08.722Z,87.54
2022-12-03T16:55:13.333Z,87.65
2022-12-03T16:58:18.645Z,87.77
2022-12-03T17:01:23.446Z,88.56
2022-12-03T17:04:29.047Z,89.08
2022-12-03T17:07:31.515Z,89.40
2022-12-03T17:10:35.554Z,89.65
2022-12-03T17:13:38.003Z,89.89
2022-12-03T17:16:40.416Z,89.18
2022-12-03T17:19:42.947Z,88.30
2022-12-03T17:22:46.462Z,88.35
2022-12-03T17:25:50.381Z,88.24
2022-12-03T17:28:53.058Z,88.83
2022-12-03T17:31:55.574Z,89.76
2022-12-03T17:34:58.228Z,90.33
2022-12-03T17:38:02.510Z,90.34
2022-12-03T17:41:07.474Z,90.28
2022-12-03T17:44:12.084Z,90.93
2022-12-03T17:47:16.700Z,91.24
2022-12-03T17:50:19.369Z,91.01
2022-12-03T17:53:21.991Z,91.19
2022-12-03T17:56:26.292Z,91.18
2022-12-03T17:59:28.922Z,90.86
2022-12-03T18:02:31.547Z,90.69
2022-12-03T18:05:34.097Z,90.66
2022-12-03T18:08:36.506Z,90.68
2022-12-03T18:11:40.539Z,90.57
2022-12-03T18:14:43.067Z,90.20
2022-12-03T18:17:45.707Z,90.85
2022-12-03T18:20:48.403Z,92.16
2022-12-03T18:23:51.022Z,91.68
2022-12-03T18:26:56.179Z,91.60
2022-12-03T18:29:58.885Z,91.03
2022-12-03T18:33:01.364Z,91.16
2022-12-03T18:36:04.937Z,91.42
2022-12-03T18:39:12.273Z,91.08
2022-12-03T18:42:17.961Z,90.95
2022-12-03T18:45:20.780Z,91.00
2022-12-03T18:48:23.673Z,91.48
2022-12-03T18:51:28.653Z,91.55
2022-12-03T18:54:31.238Z,90.81
2022-12-03T18:57:35.196Z,92.16
2022-12-03T19:00:39.725Z,92.02
2022-12-03T19:03:42.236Z,92.51
2022-12-03T19:06:44.856Z,93.04
2022-12-03T19:09:48.687Z,93.12
2022-12-03T19:12:53.579Z,93.51
2022-12-03T19:15:56.385Z,93.36
2022-12-03T19:18:59.837Z,92.76
2022-12-03T19:22:03.635Z,92.51
2022-12-03T19:25:06.562Z,92.05
2022-12-03T19:28:10.335Z,92.33
2022-12-03T19:31:16.350Z,92.58
2022-12-03T19:34:19.583Z,92.91
2022-12-03T19:37:22.233Z,93.17
2022-12-03T19:40:24.873Z,93.58
2022-12-03T19:43:29.165Z,93.83
2022-12-03T19:46:31.957Z,94.16
2022-12-03T19:49:34.710Z,93.70
2022-12-03T19:52:38.339Z,93.28
2022-12-03T19:55:41.000Z,92.37
2022-12-03T19:58:46.783Z,91.98
2022-12-03T20:01:49.627Z,91.98
2022-12-03T20:04:52.307Z,92.05
2022-12-03T20:07:55.009Z,91.96
2022-12-03T20:11:07.394Z,91.30
2022-12-03T20:14:14.731Z,91.30
2022-12-03T20:17:17.472Z,92.09
2022-12-03T20:20:20.526Z,91.78
2022-12-03T20:23:23.307Z,91.86
2022-12-03T20:26:26.574Z,91.75
2022-12-03T20:29:30.896Z,90.92
2022-12-03T20:32:34.994Z,90.96
2022-12-03T20:35:37.961Z,91.06
2022-12-03T20:38:40.859Z,91.21
2022-12-03T20:41:44.895Z,91.38
2022-12-03T20:44:51.173Z,91.20
2022-12-03T20:47:53.870Z,91.41
2022-12-03T20:50:56.540Z,91.46
2022-12-03T20:54:00.174Z,90.82
2022-12-03T20:57:03.065Z,90.85
2022-12-03T21:00:08.404Z,91.41
2022-12-03T21:03:11.027Z,91.14
2022-12-03T21:06:14.601Z,90.69
2022-12-03T21:09:17.349Z,90.55
2022-12-03T21:12:21.095Z,90.86
2022-12-03T21:15:25.458Z,91.35
2022-12-03T21:18:28.179Z,91.33
2022-12-03T21:21:31.626Z,91.68
2022-12-03T21:24:34.462Z,91.17
2022-12-03T21:27:55.556Z,91.39
2022-12-03T21:31:04.512Z,91.96
2022-12-03T21:34:08.532Z,91.53
2022-12-03T21:37:11.267Z,91.79
2022-12-03T21:40:14.038Z,91.96
2022-12-03T21:43:16.519Z,91.77
2022-12-03T21:47:09.315Z,91.90
2022-12-03T21:49:44.083Z,91.98
2022-12-03T21:52:46.561Z,91.94
2022-12-03T21:55:49.159Z,92.11
2022-12-03T21:58:52.320Z,91.89
2022-12-03T22:01:56.466Z,91.43
2022-12-03T22:04:59.155Z,91.17
2022-12-03T22:08:01.699Z,90.64
2022-12-03T22:11:05.697Z,90.80
2022-12-03T22:14:09.835Z,91.17
2022-12-03T22:17:14.660Z,91.45
2022-12-03T22:20:17.202Z,90.86
2022-12-03T22:23:19.622Z,91.17
2022-12-03T22:26:22.458Z,91.25
2022-12-03T22:29:24.987Z,90.52
2022-12-03T22:32:28.876Z,90.24
2022-12-03T22:35:33.104Z,91.43
2022-12-03T22:38:35.614Z,91.59
2022-12-03T22:41:38.164Z,92.00
2022-12-03T22:44:40.667Z,92.06
2022-12-03T22:47:44.483Z,92.06
2022-12-03T22:50:48.129Z,91.93
2022-12-03T22:53:54.757Z,91.43
2022-12-03T22:56:57.321Z,91.33
2022-12-03T22:59:59.916Z,92.15
2022-12-03T23:03:04.770Z,91.67
2022-12-03T23:06:11.104Z,92.63
2022-12-03T23:09:13.830Z,92.73
2022-12-03T23:12:16.299Z,92.48
2022-12-03T23:15:18.751Z,91.89
2022-12-03T23:18:22.594Z,91.63
2022-12-03T23:21:29.886Z,92.45
2022-12-03T23:24:33.116Z,93.39
2022-12-03T23:27:35.686Z,93.71
2022-12-03T23:30:39.262Z,93.53
2022-12-03T23:33:43.048Z,93.17
2022-12-03T23:36:45.472Z,92.69
2022-12-03T23:39:48.214Z,92.03
2022-12-03T23:42:50.670Z,92.31
2022-12-03T23:45:53.083Z,92.78
2022-12-03T23:48:58.782Z,93.26
2022-12-03T23:52:01.268Z,92.84
2022-12-03T23:55:04.202Z,92.87
2022-12-03T23:58:07.702Z,92.71
